PPCAW SBNF-SBGR
Flight info
| Callsign | PPCAW |
|---|---|
| Flight time | 1h 28m |
| Altitude | 25000 |
| Route | DCT UMDOR VIA UZ69 DCT XONUG VIA UZ121 DCT BUXUK |
| Aircraft | BE9L/L-SDFGR/LS1 |
Departure
| Time | 2026-04-15 03:32 |
|---|---|
| Airport | Ministro Victor Konder International Airport (SBNF) |
Arrival
| Time | 2026-04-15 05:00 |
|---|---|
| Airport | São Paulo/Guarulhos–Governor André Franco Montoro International Airport (SBGR) |
| Time | Latitude | Longitude | Altitude | Speed | Heading |
|---|---|---|---|---|---|
| 2026-04-15 03:08 | -26.87926 | -48.64806 | 26 ft | 0 kts | 234° |
| 2026-04-15 03:21 | -26.87927 | -48.64807 | 26 ft | 0 kts | 234° |
| 2026-04-15 03:21 | -26.87917 | -48.64837 | 26 ft | 8 kts | 342° |
| 2026-04-15 03:22 | -26.87886 | -48.64848 | 26 ft | 0 kts | 322° |
| 2026-04-15 03:24 | -26.87884 | -48.64849 | 26 ft | 1 kts | 322° |
| 2026-04-15 03:24 | -26.87883 | -48.64850 | 26 ft | 0 kts | 322° |
| 2026-04-15 03:25 | -26.87876 | -48.64856 | 27 ft | 2 kts | 322° |
| 2026-04-15 03:25 | -26.87857 | -48.64873 | 26 ft | 4 kts | 322° |
| 2026-04-15 03:25 | -26.87823 | -48.64884 | 26 ft | 6 kts | 26° |
| 2026-04-15 03:26 | -26.87790 | -48.64841 | 26 ft | 8 kts | 56° |
| 2026-04-15 03:26 | -26.87756 | -48.64785 | 27 ft | 9 kts | 56° |
| 2026-04-15 03:26 | -26.87717 | -48.64720 | 26 ft | 10 kts | 56° |
| 2026-04-15 03:26 | -26.87674 | -48.64650 | 26 ft | 11 kts | 56° |
| 2026-04-15 03:27 | -26.87628 | -48.64576 | 26 ft | 11 kts | 55° |
| 2026-04-15 03:27 | -26.87579 | -48.64498 | 26 ft | 12 kts | 55° |
| 2026-04-15 03:27 | -26.87529 | -48.64419 | 26 ft | 12 kts | 55° |
| 2026-04-15 03:27 | -26.87463 | -48.64365 | 26 ft | 12 kts | 15° |
| 2026-04-15 03:28 | -26.87457 | -48.64303 | 26 ft | 11 kts | 189° |
| 2026-04-15 03:28 | -26.87489 | -48.64346 | 26 ft | 0 kts | 233° |
| 2026-04-15 03:28 | -26.87492 | -48.64349 | 26 ft | 1 kts | 233° |
| 2026-04-15 03:28 | -26.87503 | -48.64367 | 26 ft | 3 kts | 233° |
| 2026-04-15 03:29 | -26.87520 | -48.64397 | 26 ft | 4 kts | 244° |
| 2026-04-15 03:29 | -26.87534 | -48.64418 | 26 ft | 0 kts | 236° |
| 2026-04-15 03:30 | -26.87534 | -48.64419 | 26 ft | 0 kts | 236° |
| 2026-04-15 03:31 | -26.87560 | -48.64462 | 26 ft | 36 kts | 236° |
| 2026-04-15 03:31 | -26.87857 | -48.64938 | 27 ft | 102 kts | 238° |
| 2026-04-15 03:31 | -26.88285 | -48.65669 | 200 ft | 119 kts | 238° |
| 2026-04-15 03:32 | -26.88750 | -48.66501 | 495 ft | 136 kts | 239° |
| 2026-04-15 03:32 | -26.89295 | -48.67424 | 803 ft | 149 kts | 230° |
| 2026-04-15 03:32 | -26.89944 | -48.68400 | 1121 ft | 157 kts | 235° |
| 2026-04-15 03:32 | -26.90563 | -48.69410 | 1381 ft | 159 kts | 236° |
| 2026-04-15 03:33 | -26.91196 | -48.70466 | 1561 ft | 163 kts | 236° |
| 2026-04-15 03:33 | -26.91836 | -48.71525 | 1761 ft | 164 kts | 236° |
| 2026-04-15 03:33 | -26.92480 | -48.72592 | 1946 ft | 167 kts | 236° |
| 2026-04-15 03:33 | -26.93133 | -48.73674 | 2133 ft | 168 kts | 236° |
| 2026-04-15 03:34 | -26.93790 | -48.74759 | 2356 ft | 167 kts | 236° |
| 2026-04-15 03:34 | -26.94443 | -48.75858 | 2555 ft | 168 kts | 243° |
| 2026-04-15 03:34 | -26.94574 | -48.77123 | 2744 ft | 163 kts | 289° |
| 2026-04-15 03:34 | -26.93929 | -48.78079 | 2934 ft | 154 kts | 335° |
| 2026-04-15 03:35 | -26.92905 | -48.78342 | 3104 ft | 151 kts | 355° |
| 2026-04-15 03:35 | -26.91873 | -48.78566 | 3325 ft | 150 kts | 352° |
| 2026-04-15 03:35 | -26.90853 | -48.78830 | 3485 ft | 153 kts | 350° |
| 2026-04-15 03:35 | -26.89805 | -48.79125 | 3737 ft | 155 kts | 349° |
| 2026-04-15 03:36 | -26.88777 | -48.79427 | 4120 ft | 153 kts | 350° |
| 2026-04-15 03:36 | -26.87739 | -48.79734 | 4481 ft | 153 kts | 350° |
| 2026-04-15 03:36 | -26.86699 | -48.80044 | 4821 ft | 154 kts | 350° |
| 2026-04-15 03:36 | -26.85657 | -48.80355 | 5161 ft | 154 kts | 351° |
| 2026-04-15 03:37 | -26.84623 | -48.80663 | 5472 ft | 155 kts | 350° |
| 2026-04-15 03:37 | -26.83579 | -48.80976 | 5780 ft | 155 kts | 350° |
| 2026-04-15 03:37 | -26.82521 | -48.81291 | 6060 ft | 157 kts | 350° |
| 2026-04-15 03:37 | -26.81447 | -48.81612 | 6366 ft | 158 kts | 351° |
| 2026-04-15 03:38 | -26.80392 | -48.81927 | 6653 ft | 158 kts | 351° |
| 2026-04-15 03:38 | -26.79320 | -48.82246 | 6916 ft | 160 kts | 350° |
| 2026-04-15 03:38 | -26.78237 | -48.82572 | 7197 ft | 160 kts | 351° |
| 2026-04-15 03:38 | -26.77159 | -48.82893 | 7472 ft | 161 kts | 351° |
| 2026-04-15 03:39 | -26.76708 | -48.83029 | 7595 ft | 161 kts | 350° |
| 2026-04-15 03:39 | -26.75617 | -48.83353 | 7842 ft | 163 kts | 350° |
| 2026-04-15 03:39 | -26.74526 | -48.83679 | 8091 ft | 164 kts | 350° |
| 2026-04-15 03:39 | -26.73397 | -48.84014 | 8330 ft | 165 kts | 351° |
| 2026-04-15 03:40 | -26.72282 | -48.83984 | 8561 ft | 161 kts | 10° |
| 2026-04-15 03:40 | -26.71166 | -48.83835 | 8772 ft | 162 kts | 10° |
| 2026-04-15 03:40 | -26.70039 | -48.83678 | 9018 ft | 162 kts | 11° |
| 2026-04-15 03:40 | -26.68914 | -48.83517 | 9217 ft | 164 kts | 11° |
| 2026-04-15 03:41 | -26.67780 | -48.83355 | 9453 ft | 163 kts | 11° |
| 2026-04-15 03:41 | -26.66654 | -48.83193 | 9647 ft | 164 kts | 11° |
| 2026-04-15 03:41 | -26.65515 | -48.83029 | 9841 ft | 166 kts | 11° |
| 2026-04-15 03:41 | -26.64359 | -48.82862 | 10040 ft | 167 kts | 11° |
| 2026-04-15 03:42 | -26.63215 | -48.82698 | 10258 ft | 167 kts | 11° |
| 2026-04-15 03:42 | -26.62052 | -48.82531 | 10457 ft | 167 kts | 11° |
| 2026-04-15 03:42 | -26.60893 | -48.82364 | 10637 ft | 168 kts | 10° |
| 2026-04-15 03:42 | -26.59735 | -48.82196 | 10855 ft | 170 kts | 10° |
| 2026-04-15 03:43 | -26.58562 | -48.82028 | 11172 ft | 169 kts | 10° |
| 2026-04-15 03:43 | -26.57389 | -48.81859 | 11448 ft | 170 kts | 9° |
| 2026-04-15 03:43 | -26.56212 | -48.81691 | 11752 ft | 169 kts | 9° |
| 2026-04-15 03:43 | -26.55047 | -48.81523 | 12011 ft | 170 kts | 9° |
| 2026-04-15 03:44 | -26.53861 | -48.81352 | 12312 ft | 172 kts | 9° |
| 2026-04-15 03:44 | -26.52676 | -48.81182 | 12666 ft | 171 kts | 9° |
| 2026-04-15 03:44 | -26.51488 | -48.81012 | 12995 ft | 172 kts | 8° |
| 2026-04-15 03:44 | -26.50291 | -48.80840 | 13275 ft | 173 kts | 8° |
| 2026-04-15 03:45 | -26.49103 | -48.80669 | 13557 ft | 174 kts | 8° |
| 2026-04-15 03:45 | -26.47885 | -48.80495 | 13819 ft | 177 kts | 8° |
| 2026-04-15 03:45 | -26.46657 | -48.80318 | 14083 ft | 178 kts | 8° |
| 2026-04-15 03:45 | -26.45408 | -48.80139 | 14361 ft | 180 kts | 8° |
| 2026-04-15 03:46 | -26.44169 | -48.79961 | 14652 ft | 180 kts | 8° |
| 2026-04-15 03:46 | -26.42923 | -48.79783 | 14909 ft | 181 kts | 8° |
| 2026-04-15 03:46 | -26.41652 | -48.79600 | 15156 ft | 183 kts | 8° |
| 2026-04-15 03:46 | -26.40404 | -48.79422 | 15418 ft | 182 kts | 8° |
| 2026-04-15 03:47 | -26.39135 | -48.79242 | 15659 ft | 184 kts | 8° |
| 2026-04-15 03:47 | -26.37839 | -48.79058 | 15892 ft | 185 kts | 8° |
| 2026-04-15 03:47 | -26.36555 | -48.78875 | 16126 ft | 186 kts | 8° |
| 2026-04-15 03:47 | -26.35263 | -48.78692 | 16356 ft | 187 kts | 7° |
| 2026-04-15 03:48 | -26.33968 | -48.78508 | 16582 ft | 187 kts | 8° |
| 2026-04-15 03:48 | -26.32657 | -48.78320 | 16794 ft | 189 kts | 8° |
| 2026-04-15 03:48 | -26.31352 | -48.78135 | 17001 ft | 190 kts | 7° |
| 2026-04-15 03:48 | -26.30026 | -48.77946 | 17207 ft | 191 kts | 7° |
| 2026-04-15 03:49 | -26.28689 | -48.77755 | 17391 ft | 193 kts | 7° |
| 2026-04-15 03:49 | -26.27360 | -48.77566 | 17618 ft | 192 kts | 7° |
| 2026-04-15 03:49 | -26.26013 | -48.77375 | 17802 ft | 194 kts | 6° |
| 2026-04-15 03:49 | -26.24641 | -48.77182 | 17985 ft | 196 kts | 7° |
| 2026-04-15 03:50 | -26.23290 | -48.76989 | 18179 ft | 197 kts | 6° |
| 2026-04-15 03:50 | -26.21917 | -48.76795 | 18373 ft | 197 kts | 6° |
| 2026-04-15 03:50 | -26.20539 | -48.76598 | 18566 ft | 198 kts | 6° |
| 2026-04-15 03:50 | -26.19154 | -48.76402 | 18752 ft | 198 kts | 6° |
| 2026-04-15 03:51 | -26.17786 | -48.76208 | 18937 ft | 199 kts | 5° |
| 2026-04-15 03:51 | -26.16407 | -48.76012 | 19111 ft | 199 kts | 5° |
| 2026-04-15 03:51 | -26.15019 | -48.75815 | 19280 ft | 200 kts | 5° |
| 2026-04-15 03:51 | -26.13614 | -48.75615 | 19443 ft | 201 kts | 5° |
| 2026-04-15 03:52 | -26.12224 | -48.75419 | 19612 ft | 202 kts | 4° |
| 2026-04-15 03:52 | -26.10835 | -48.75073 | 19768 ft | 205 kts | 13° |
| 2026-04-15 03:52 | -26.09453 | -48.74636 | 19927 ft | 206 kts | 13° |
| 2026-04-15 03:52 | -26.08068 | -48.74196 | 20137 ft | 208 kts | 13° |
| 2026-04-15 03:53 | -26.06663 | -48.73747 | 20410 ft | 209 kts | 12° |
| 2026-04-15 03:53 | -26.05252 | -48.73299 | 20650 ft | 210 kts | 12° |
| 2026-04-15 03:53 | -26.03863 | -48.72855 | 20914 ft | 210 kts | 12° |
| 2026-04-15 03:53 | -26.02430 | -48.72398 | 21141 ft | 212 kts | 12° |
| 2026-04-15 03:54 | -26.01008 | -48.71945 | 21384 ft | 213 kts | 12° |
| 2026-04-15 03:54 | -25.99566 | -48.71484 | 21608 ft | 215 kts | 12° |
| 2026-04-15 03:54 | -25.98136 | -48.71028 | 21850 ft | 215 kts | 11° |
| 2026-04-15 03:55 | -25.95187 | -48.70088 | 22301 ft | 217 kts | 11° |
| 2026-04-15 03:55 | -25.93744 | -48.69627 | 22519 ft | 218 kts | 11° |
| 2026-04-15 03:55 | -25.92264 | -48.69158 | 22733 ft | 219 kts | 11° |
| 2026-04-15 03:55 | -25.90798 | -48.68690 | 22936 ft | 220 kts | 10° |
| 2026-04-15 03:56 | -25.89313 | -48.68219 | 23153 ft | 221 kts | 10° |
| 2026-04-15 03:56 | -25.87826 | -48.67745 | 23323 ft | 223 kts | 11° |
| 2026-04-15 03:56 | -25.86341 | -48.67274 | 23533 ft | 223 kts | 11° |
| 2026-04-15 03:56 | -25.84838 | -48.66795 | 23700 ft | 225 kts | 11° |
| 2026-04-15 03:57 | -25.83309 | -48.66309 | 23919 ft | 225 kts | 11° |
| 2026-04-15 03:57 | -25.81807 | -48.65832 | 24108 ft | 225 kts | 11° |
| 2026-04-15 03:57 | -25.80277 | -48.65344 | 24287 ft | 227 kts | 11° |
| 2026-04-15 03:57 | -25.78740 | -48.64857 | 24475 ft | 227 kts | 11° |
| 2026-04-15 03:58 | -25.77217 | -48.64372 | 24663 ft | 228 kts | 11° |
| 2026-04-15 03:58 | -25.75667 | -48.63880 | 24848 ft | 228 kts | 11° |
| 2026-04-15 03:58 | -25.74123 | -48.63389 | 24996 ft | 230 kts | 11° |
| 2026-04-15 03:58 | -25.72550 | -48.62890 | 25068 ft | 236 kts | 11° |
| 2026-04-15 03:59 | -25.70937 | -48.62380 | 25078 ft | 242 kts | 11° |
| 2026-04-15 03:59 | -25.69294 | -48.61858 | 25079 ft | 245 kts | 11° |
| 2026-04-15 03:59 | -25.67645 | -48.61334 | 25083 ft | 247 kts | 11° |
| 2026-04-15 03:59 | -25.65978 | -48.60804 | 25082 ft | 248 kts | 11° |
| 2026-04-15 04:00 | -25.64299 | -48.60273 | 25081 ft | 250 kts | 11° |
| 2026-04-15 04:00 | -25.62608 | -48.59736 | 25083 ft | 251 kts | 11° |
| 2026-04-15 04:00 | -25.60906 | -48.59197 | 25082 ft | 252 kts | 11° |
| 2026-04-15 04:00 | -25.59209 | -48.58659 | 25077 ft | 254 kts | 11° |
| 2026-04-15 04:01 | -25.57507 | -48.58120 | 25079 ft | 254 kts | 12° |
| 2026-04-15 04:01 | -25.55810 | -48.57582 | 25084 ft | 255 kts | 11° |
| 2026-04-15 04:01 | -25.54099 | -48.57041 | 25082 ft | 255 kts | 12° |
| 2026-04-15 04:01 | -25.52378 | -48.56496 | 25082 ft | 256 kts | 11° |
| 2026-04-15 04:02 | -25.50644 | -48.55948 | 25076 ft | 256 kts | 11° |
| 2026-04-15 04:02 | -25.48920 | -48.55404 | 25070 ft | 257 kts | 11° |
| 2026-04-15 04:02 | -25.47181 | -48.54853 | 25070 ft | 257 kts | 12° |
| 2026-04-15 04:02 | -25.45446 | -48.54305 | 25067 ft | 257 kts | 12° |
| 2026-04-15 04:03 | -25.43734 | -48.53766 | 25063 ft | 257 kts | 12° |
| 2026-04-15 04:03 | -25.41973 | -48.53208 | 25062 ft | 257 kts | 12° |
| 2026-04-15 04:03 | -25.40247 | -48.52663 | 25063 ft | 257 kts | 12° |
| 2026-04-15 04:03 | -25.38507 | -48.52114 | 25061 ft | 257 kts | 12° |
| 2026-04-15 04:04 | -25.36757 | -48.51563 | 25061 ft | 257 kts | 12° |
| 2026-04-15 04:04 | -25.35016 | -48.51014 | 25060 ft | 257 kts | 12° |
| 2026-04-15 04:04 | -25.33275 | -48.50465 | 25062 ft | 257 kts | 12° |
| 2026-04-15 04:04 | -25.31545 | -48.49918 | 25066 ft | 257 kts | 12° |
| 2026-04-15 04:05 | -25.29810 | -48.49372 | 25063 ft | 257 kts | 12° |
| 2026-04-15 04:05 | -25.28067 | -48.48822 | 25062 ft | 257 kts | 12° |
| 2026-04-15 04:05 | -25.26327 | -48.48274 | 25062 ft | 258 kts | 12° |
| 2026-04-15 04:05 | -25.24580 | -48.47724 | 25061 ft | 258 kts | 11° |
| 2026-04-15 04:06 | -25.22845 | -48.47180 | 25063 ft | 258 kts | 12° |
| 2026-04-15 04:06 | -25.21108 | -48.46633 | 25069 ft | 258 kts | 12° |
| 2026-04-15 04:06 | -25.19354 | -48.46080 | 25074 ft | 257 kts | 12° |
| 2026-04-15 04:06 | -25.17619 | -48.45535 | 25079 ft | 257 kts | 12° |
| 2026-04-15 04:07 | -25.15865 | -48.44984 | 25083 ft | 257 kts | 12° |
| 2026-04-15 04:07 | -25.14127 | -48.44437 | 25089 ft | 254 kts | 12° |
| 2026-04-15 04:07 | -25.12429 | -48.43903 | 25093 ft | 253 kts | 12° |
| 2026-04-15 04:07 | -25.11724 | -48.43662 | 25092 ft | 253 kts | 14° |
| 2026-04-15 04:08 | -25.11187 | -48.43464 | 25092 ft | 251 kts | 14° |
| 2026-04-15 04:08 | -25.09779 | -48.42954 | 25099 ft | 251 kts | 14° |
| 2026-04-15 04:09 | -25.08118 | -48.42353 | 25101 ft | 253 kts | 14° |
| 2026-04-15 04:09 | -25.06409 | -48.41733 | 25103 ft | 257 kts | 14° |
| 2026-04-15 04:09 | -25.04690 | -48.41109 | 25107 ft | 261 kts | 14° |
| 2026-04-15 04:09 | -25.02951 | -48.40480 | 25111 ft | 263 kts | 15° |
| 2026-04-15 04:10 | -25.01179 | -48.39836 | 25112 ft | 266 kts | 14° |
| 2026-04-15 04:10 | -24.99408 | -48.39194 | 25115 ft | 267 kts | 15° |
| 2026-04-15 04:10 | -24.97610 | -48.38541 | 25111 ft | 269 kts | 14° |
| 2026-04-15 04:10 | -24.95826 | -48.37896 | 25105 ft | 271 kts | 15° |
| 2026-04-15 04:11 | -24.94031 | -48.37245 | 25104 ft | 272 kts | 14° |
| 2026-04-15 04:11 | -24.92197 | -48.36584 | 25106 ft | 272 kts | 15° |
| 2026-04-15 04:11 | -24.90380 | -48.35925 | 25104 ft | 273 kts | 14° |
| 2026-04-15 04:11 | -24.88572 | -48.35271 | 25102 ft | 274 kts | 15° |
| 2026-04-15 04:12 | -24.86741 | -48.34610 | 25092 ft | 274 kts | 14° |
| 2026-04-15 04:12 | -24.84911 | -48.33947 | 25088 ft | 274 kts | 14° |
| 2026-04-15 04:12 | -24.83085 | -48.33287 | 25084 ft | 274 kts | 14° |
| 2026-04-15 04:12 | -24.81276 | -48.32634 | 25084 ft | 274 kts | 14° |
| 2026-04-15 04:13 | -24.79456 | -48.31977 | 25081 ft | 274 kts | 14° |
| 2026-04-15 04:13 | -24.77655 | -48.31326 | 25075 ft | 274 kts | 14° |
| 2026-04-15 04:13 | -24.75822 | -48.30664 | 25066 ft | 274 kts | 15° |
| 2026-04-15 04:13 | -24.74005 | -48.30009 | 25064 ft | 274 kts | 14° |
| 2026-04-15 04:14 | -24.72176 | -48.29348 | 25063 ft | 274 kts | 14° |
| 2026-04-15 04:14 | -24.70348 | -48.28690 | 25063 ft | 274 kts | 14° |
| 2026-04-15 04:14 | -24.68538 | -48.28039 | 25064 ft | 274 kts | 15° |
| 2026-04-15 04:14 | -24.66721 | -48.27383 | 25060 ft | 274 kts | 15° |
| 2026-04-15 04:15 | -24.64898 | -48.26726 | 25058 ft | 274 kts | 14° |
| 2026-04-15 04:15 | -24.63094 | -48.26076 | 25059 ft | 274 kts | 14° |
| 2026-04-15 04:15 | -24.61260 | -48.25415 | 25060 ft | 274 kts | 15° |
| 2026-04-15 04:15 | -24.59457 | -48.24768 | 25058 ft | 274 kts | 14° |
| 2026-04-15 04:16 | -24.57602 | -48.24101 | 25057 ft | 273 kts | 15° |
| 2026-04-15 04:16 | -24.55786 | -48.23447 | 25056 ft | 273 kts | 15° |
| 2026-04-15 04:16 | -24.53966 | -48.22792 | 25053 ft | 273 kts | 14° |
| 2026-04-15 04:16 | -24.52135 | -48.22134 | 25055 ft | 273 kts | 15° |
| 2026-04-15 04:17 | -24.50321 | -48.21482 | 25056 ft | 273 kts | 14° |
| 2026-04-15 04:17 | -24.48497 | -48.20827 | 25058 ft | 273 kts | 15° |
| 2026-04-15 04:17 | -24.46682 | -48.20173 | 25055 ft | 273 kts | 14° |
| 2026-04-15 04:17 | -24.44855 | -48.19517 | 25059 ft | 273 kts | 15° |
| 2026-04-15 04:18 | -24.43022 | -48.18861 | 25058 ft | 273 kts | 14° |
| 2026-04-15 04:18 | -24.41213 | -48.18212 | 25060 ft | 273 kts | 15° |
| 2026-04-15 04:18 | -24.39391 | -48.17558 | 25063 ft | 273 kts | 15° |
| 2026-04-15 04:18 | -24.37575 | -48.16906 | 25063 ft | 273 kts | 15° |
| 2026-04-15 04:19 | -24.35746 | -48.16252 | 25065 ft | 273 kts | 15° |
| 2026-04-15 04:19 | -24.33997 | -48.15434 | 25074 ft | 275 kts | 26° |
| 2026-04-15 04:19 | -24.32287 | -48.14427 | 25070 ft | 275 kts | 26° |
| 2026-04-15 04:19 | -24.30598 | -48.13430 | 25066 ft | 275 kts | 26° |
| 2026-04-15 04:20 | -24.28900 | -48.12427 | 25066 ft | 276 kts | 25° |
| 2026-04-15 04:20 | -24.27208 | -48.11430 | 25067 ft | 276 kts | 26° |
| 2026-04-15 04:20 | -24.25507 | -48.10426 | 25066 ft | 276 kts | 25° |
| 2026-04-15 04:20 | -24.23784 | -48.09412 | 25066 ft | 276 kts | 26° |
| 2026-04-15 04:21 | -24.22079 | -48.08406 | 25064 ft | 276 kts | 26° |
| 2026-04-15 04:21 | -24.20372 | -48.07401 | 25066 ft | 276 kts | 26° |
| 2026-04-15 04:21 | -24.18681 | -48.06405 | 25068 ft | 276 kts | 25° |
| 2026-04-15 04:21 | -24.16984 | -48.05407 | 25070 ft | 276 kts | 26° |
| 2026-04-15 04:22 | -24.15281 | -48.04402 | 25069 ft | 276 kts | 26° |
| 2026-04-15 04:22 | -24.13564 | -48.03393 | 25070 ft | 276 kts | 26° |
| 2026-04-15 04:22 | -24.11865 | -48.02393 | 25076 ft | 276 kts | 26° |
| 2026-04-15 04:22 | -24.10175 | -48.01398 | 25078 ft | 276 kts | 25° |
| 2026-04-15 04:23 | -24.08491 | -48.00411 | 25078 ft | 276 kts | 26° |
| 2026-04-15 04:23 | -24.06778 | -47.99403 | 25081 ft | 276 kts | 26° |
| 2026-04-15 04:23 | -24.05089 | -47.98411 | 25084 ft | 276 kts | 26° |
| 2026-04-15 04:23 | -24.03393 | -47.97414 | 25085 ft | 276 kts | 26° |
| 2026-04-15 04:24 | -24.01688 | -47.96412 | 25088 ft | 276 kts | 26° |
| 2026-04-15 04:24 | -24.00002 | -47.95424 | 25094 ft | 276 kts | 26° |
| 2026-04-15 04:24 | -23.98298 | -47.94424 | 25096 ft | 276 kts | 26° |
| 2026-04-15 04:24 | -23.96612 | -47.93434 | 25097 ft | 276 kts | 26° |
| 2026-04-15 04:25 | -23.94922 | -47.92444 | 25096 ft | 276 kts | 26° |
| 2026-04-15 04:25 | -23.93230 | -47.91452 | 25096 ft | 276 kts | 26° |
| 2026-04-15 04:25 | -23.91518 | -47.90447 | 25097 ft | 276 kts | 26° |
| 2026-04-15 04:25 | -23.89817 | -47.89451 | 25096 ft | 276 kts | 26° |
| 2026-04-15 04:26 | -23.88109 | -47.88450 | 25094 ft | 276 kts | 26° |
| 2026-04-15 04:26 | -23.86417 | -47.87459 | 25093 ft | 276 kts | 26° |
| 2026-04-15 04:26 | -23.84804 | -47.86515 | 25091 ft | 276 kts | 26° |
| 2026-04-15 04:26 | -23.83095 | -47.85514 | 25089 ft | 276 kts | 26° |
| 2026-04-15 04:27 | -23.81374 | -47.84508 | 25094 ft | 276 kts | 26° |
| 2026-04-15 04:27 | -23.79668 | -47.83511 | 25093 ft | 276 kts | 26° |
| 2026-04-15 04:27 | -23.77984 | -47.82527 | 25094 ft | 276 kts | 26° |
| 2026-04-15 04:27 | -23.76312 | -47.81478 | 25078 ft | 278 kts | 37° |
| 2026-04-15 04:28 | -23.74905 | -47.80026 | 25093 ft | 278 kts | 43° |
| 2026-04-15 04:28 | -23.73495 | -47.78544 | 25092 ft | 278 kts | 43° |
| 2026-04-15 04:28 | -23.72098 | -47.77072 | 24888 ft | 286 kts | 43° |
| 2026-04-15 04:28 | -23.70652 | -47.75549 | 24519 ft | 291 kts | 43° |
| 2026-04-15 04:29 | -23.69210 | -47.74031 | 24140 ft | 286 kts | 43° |
| 2026-04-15 04:29 | -23.67789 | -47.72536 | 23769 ft | 282 kts | 43° |
| 2026-04-15 04:29 | -23.66375 | -47.71048 | 23404 ft | 279 kts | 43° |
| 2026-04-15 04:29 | -23.64988 | -47.69589 | 23138 ft | 272 kts | 43° |
| 2026-04-15 04:30 | -23.63661 | -47.68193 | 23087 ft | 258 kts | 43° |
| 2026-04-15 04:30 | -23.62401 | -47.66868 | 23079 ft | 245 kts | 43° |
| 2026-04-15 04:30 | -23.61200 | -47.65605 | 23077 ft | 234 kts | 43° |
| 2026-04-15 04:30 | -23.60043 | -47.64389 | 23077 ft | 225 kts | 43° |
| 2026-04-15 04:31 | -23.58936 | -47.63225 | 23076 ft | 218 kts | 43° |
| 2026-04-15 04:31 | -23.57855 | -47.62091 | 23075 ft | 211 kts | 43° |
| 2026-04-15 04:31 | -23.56809 | -47.60992 | 23071 ft | 206 kts | 43° |
| 2026-04-15 04:31 | -23.55793 | -47.59927 | 23076 ft | 204 kts | 43° |
| 2026-04-15 04:32 | -23.54752 | -47.58833 | 23078 ft | 207 kts | 43° |
| 2026-04-15 04:32 | -23.53701 | -47.57732 | 23081 ft | 209 kts | 43° |
| 2026-04-15 04:32 | -23.52642 | -47.56621 | 23076 ft | 217 kts | 43° |
| 2026-04-15 04:32 | -23.51518 | -47.55442 | 23078 ft | 223 kts | 43° |
| 2026-04-15 04:33 | -23.50386 | -47.54255 | 23076 ft | 229 kts | 43° |
| 2026-04-15 04:33 | -23.49229 | -47.53040 | 23072 ft | 233 kts | 43° |
| 2026-04-15 04:33 | -23.48045 | -47.51799 | 23073 ft | 237 kts | 43° |
| 2026-04-15 04:33 | -23.46841 | -47.50538 | 23071 ft | 240 kts | 43° |
| 2026-04-15 04:34 | -23.45629 | -47.49266 | 23071 ft | 243 kts | 43° |
| 2026-04-15 04:34 | -23.44406 | -47.47985 | 23070 ft | 245 kts | 43° |
| 2026-04-15 04:34 | -23.43173 | -47.46692 | 23072 ft | 246 kts | 43° |
| 2026-04-15 04:34 | -23.41939 | -47.45402 | 23076 ft | 247 kts | 43° |
| 2026-04-15 04:35 | -23.40675 | -47.44079 | 22940 ft | 255 kts | 43° |
| 2026-04-15 04:35 | -23.39366 | -47.42710 | 22596 ft | 269 kts | 43° |
| 2026-04-15 04:35 | -23.37977 | -47.41256 | 22240 ft | 279 kts | 43° |
| 2026-04-15 04:35 | -23.36552 | -47.39766 | 21891 ft | 286 kts | 44° |
| 2026-04-15 04:36 | -23.35105 | -47.38252 | 21541 ft | 291 kts | 44° |
| 2026-04-15 04:36 | -23.33634 | -47.36714 | 21190 ft | 295 kts | 44° |
| 2026-04-15 04:36 | -23.32132 | -47.35145 | 20834 ft | 297 kts | 44° |
| 2026-04-15 04:36 | -23.30619 | -47.33563 | 20474 ft | 298 kts | 44° |
| 2026-04-15 04:37 | -23.29138 | -47.32016 | 20123 ft | 298 kts | 44° |
| 2026-04-15 04:37 | -23.27623 | -47.30433 | 19764 ft | 298 kts | 44° |
| 2026-04-15 04:37 | -23.26130 | -47.28874 | 19413 ft | 298 kts | 44° |
| 2026-04-15 04:37 | -23.24647 | -47.27327 | 19130 ft | 294 kts | 44° |
| 2026-04-15 04:38 | -23.23197 | -47.25817 | 19070 ft | 284 kts | 44° |
| 2026-04-15 04:38 | -23.21789 | -47.24348 | 19062 ft | 274 kts | 44° |
| 2026-04-15 04:38 | -23.20430 | -47.22929 | 19060 ft | 267 kts | 44° |
| 2026-04-15 04:38 | -23.19100 | -47.21545 | 19062 ft | 262 kts | 44° |
| 2026-04-15 04:39 | -23.17804 | -47.20193 | 19067 ft | 257 kts | 44° |
| 2026-04-15 04:39 | -23.16511 | -47.18849 | 19070 ft | 254 kts | 45° |
| 2026-04-15 04:39 | -23.15244 | -47.17528 | 19076 ft | 252 kts | 44° |
| 2026-04-15 04:39 | -23.14019 | -47.16197 | 19078 ft | 250 kts | 49° |
| 2026-04-15 04:40 | -23.12832 | -47.14795 | 19074 ft | 249 kts | 47° |
| 2026-04-15 04:40 | -23.11669 | -47.13422 | 19076 ft | 248 kts | 48° |
| 2026-04-15 04:40 | -23.10500 | -47.12046 | 19078 ft | 247 kts | 48° |
| 2026-04-15 04:40 | -23.09342 | -47.10680 | 19081 ft | 246 kts | 47° |
| 2026-04-15 04:41 | -23.08168 | -47.09296 | 19080 ft | 246 kts | 48° |
| 2026-04-15 04:41 | -23.07010 | -47.07934 | 19078 ft | 246 kts | 48° |
| 2026-04-15 04:41 | -23.05846 | -47.06562 | 18900 ft | 254 kts | 48° |
| 2026-04-15 04:41 | -23.04612 | -47.05108 | 18553 ft | 265 kts | 48° |
| 2026-04-15 04:42 | -23.03349 | -47.03621 | 18207 ft | 273 kts | 48° |
| 2026-04-15 04:42 | -23.02060 | -47.02106 | 17861 ft | 277 kts | 48° |
| 2026-04-15 04:42 | -23.00746 | -47.00559 | 17514 ft | 280 kts | 48° |
| 2026-04-15 04:42 | -22.99406 | -46.98984 | 17167 ft | 282 kts | 48° |
| 2026-04-15 04:43 | -22.98084 | -46.97427 | 16828 ft | 284 kts | 48° |
| 2026-04-15 04:43 | -22.96736 | -46.95845 | 16485 ft | 285 kts | 48° |
| 2026-04-15 04:43 | -22.95384 | -46.94255 | 16141 ft | 286 kts | 48° |
| 2026-04-15 04:43 | -22.94045 | -46.92682 | 15800 ft | 286 kts | 48° |
| 2026-04-15 04:44 | -22.92682 | -46.91081 | 15450 ft | 285 kts | 48° |
| 2026-04-15 04:44 | -22.91750 | -46.89244 | 15054 ft | 282 kts | 78° |
| 2026-04-15 04:44 | -22.91920 | -46.87165 | 14650 ft | 282 kts | 111° |
| 2026-04-15 04:44 | -22.93086 | -46.85452 | 14257 ft | 280 kts | 133° |
| 2026-04-15 04:45 | -22.94406 | -46.83927 | 13853 ft | 273 kts | 133° |
| 2026-04-15 04:45 | -22.95706 | -46.82468 | 13455 ft | 266 kts | 134° |
| 2026-04-15 04:45 | -22.96970 | -46.81071 | 13059 ft | 260 kts | 134° |
| 2026-04-15 04:45 | -22.98240 | -46.79679 | 12658 ft | 253 kts | 134° |
| 2026-04-15 04:46 | -22.99468 | -46.78336 | 12265 ft | 249 kts | 134° |
| 2026-04-15 04:46 | -23.01884 | -46.75699 | 11463 ft | 244 kts | 134° |
| 2026-04-15 04:46 | -23.03071 | -46.74402 | 11061 ft | 239 kts | 134° |
| 2026-04-15 04:47 | -23.04225 | -46.73141 | 10661 ft | 236 kts | 134° |
| 2026-04-15 04:47 | -23.05370 | -46.71890 | 10254 ft | 230 kts | 133° |
| 2026-04-15 04:47 | -23.06496 | -46.70663 | 9843 ft | 224 kts | 133° |
| 2026-04-15 04:47 | -23.07580 | -46.69479 | 9433 ft | 220 kts | 133° |
| 2026-04-15 04:48 | -23.08645 | -46.68316 | 9149 ft | 215 kts | 133° |
| 2026-04-15 04:48 | -23.09678 | -46.67188 | 9106 ft | 208 kts | 133° |
| 2026-04-15 04:48 | -23.10679 | -46.66093 | 9099 ft | 200 kts | 133° |
| 2026-04-15 04:48 | -23.11645 | -46.65029 | 9106 ft | 193 kts | 131° |
| 2026-04-15 04:49 | -23.12771 | -46.64298 | 9116 ft | 186 kts | 154° |
| 2026-04-15 04:49 | -23.13954 | -46.63784 | 9037 ft | 182 kts | 156° |
| 2026-04-15 04:49 | -23.15173 | -46.63295 | 8678 ft | 191 kts | 158° |
| 2026-04-15 04:49 | -23.16448 | -46.62799 | 8320 ft | 197 kts | 157° |
| 2026-04-15 04:50 | -23.17738 | -46.62299 | 8084 ft | 194 kts | 158° |
| 2026-04-15 04:50 | -23.18974 | -46.61826 | 7996 ft | 185 kts | 158° |
| 2026-04-15 04:50 | -23.20213 | -46.61349 | 7975 ft | 173 kts | 157° |
| 2026-04-15 04:50 | -23.21401 | -46.60892 | 7973 ft | 162 kts | 156° |
| 2026-04-15 04:51 | -23.22503 | -46.60467 | 7974 ft | 155 kts | 156° |
| 2026-04-15 04:51 | -23.23609 | -46.60040 | 7984 ft | 166 kts | 157° |
| 2026-04-15 04:51 | -23.24751 | -46.59599 | 7986 ft | 175 kts | 157° |
| 2026-04-15 04:51 | -23.25938 | -46.59148 | 7986 ft | 183 kts | 160° |
| 2026-04-15 04:52 | -23.27232 | -46.59237 | 7967 ft | 194 kts | 195° |
| 2026-04-15 04:52 | -23.28570 | -46.59696 | 7633 ft | 212 kts | 196° |
| 2026-04-15 04:52 | -23.30006 | -46.60197 | 7266 ft | 216 kts | 197° |
| 2026-04-15 04:52 | -23.31401 | -46.60689 | 7035 ft | 197 kts | 196° |
| 2026-04-15 04:53 | -23.32666 | -46.61134 | 6975 ft | 175 kts | 196° |
| 2026-04-15 04:53 | -23.33819 | -46.61538 | 6730 ft | 172 kts | 196° |
| 2026-04-15 04:53 | -23.35020 | -46.61960 | 6351 ft | 177 kts | 196° |
| 2026-04-15 04:53 | -23.36227 | -46.62385 | 5975 ft | 178 kts | 196° |
| 2026-04-15 04:54 | -23.37398 | -46.62798 | 5612 ft | 176 kts | 196° |
| 2026-04-15 04:54 | -23.38525 | -46.63195 | 5497 ft | 160 kts | 195° |
| 2026-04-15 04:54 | -23.39543 | -46.63552 | 5479 ft | 147 kts | 195° |
| 2026-04-15 04:54 | -23.40521 | -46.63895 | 5287 ft | 152 kts | 195° |
| 2026-04-15 04:55 | -23.41581 | -46.64217 | 4926 ft | 165 kts | 186° |
| 2026-04-15 04:55 | -23.42712 | -46.64238 | 4790 ft | 158 kts | 171° |
| 2026-04-15 04:55 | -23.43752 | -46.63971 | 4772 ft | 148 kts | 156° |
| 2026-04-15 04:55 | -23.44653 | -46.63472 | 4656 ft | 148 kts | 143° |
| 2026-04-15 04:56 | -23.45479 | -46.62691 | 4303 ft | 161 kts | 130° |
| 2026-04-15 04:56 | -23.46122 | -46.61668 | 3932 ft | 163 kts | 116° |
| 2026-04-15 04:56 | -23.46482 | -46.60541 | 3635 ft | 153 kts | 102° |
| 2026-04-15 04:56 | -23.46572 | -46.59425 | 3582 ft | 146 kts | 89° |
| 2026-04-15 04:57 | -23.46422 | -46.58341 | 3575 ft | 143 kts | 76° |
| 2026-04-15 04:57 | -23.46172 | -46.57291 | 3578 ft | 139 kts | 79° |
| 2026-04-15 04:57 | -23.45942 | -46.56330 | 3581 ft | 120 kts | 76° |
| 2026-04-15 04:57 | -23.45731 | -46.55519 | 3575 ft | 106 kts | 75° |
| 2026-04-15 04:58 | -23.45515 | -46.54711 | 3542 ft | 117 kts | 75° |
| 2026-04-15 04:58 | -23.45273 | -46.53815 | 3405 ft | 126 kts | 75° |
| 2026-04-15 04:58 | -23.45051 | -46.53000 | 3243 ft | 100 kts | 75° |
| 2026-04-15 04:58 | -23.44850 | -46.52256 | 3130 ft | 106 kts | 75° |
| 2026-04-15 04:59 | -23.44637 | -46.51471 | 2992 ft | 110 kts | 75° |
| 2026-04-15 04:59 | -23.44421 | -46.50677 | 2848 ft | 109 kts | 75° |
| 2026-04-15 04:59 | -23.44216 | -46.49878 | 2691 ft | 108 kts | 73° |
| 2026-04-15 04:59 | -23.43982 | -46.49113 | 2548 ft | 103 kts | 75° |
| 2026-04-15 05:00 | -23.43786 | -46.48370 | 2449 ft | 96 kts | 74° |
| 2026-04-15 05:00 | -23.43639 | -46.47813 | 2449 ft | 60 kts | 72° |
| 2026-04-15 05:00 | -23.43538 | -46.47440 | 2446 ft | 44 kts | 75° |
| 2026-04-15 05:00 | -23.43552 | -46.47280 | 2446 ft | 13 kts | 162° |
| 2026-04-15 05:01 | -23.43612 | -46.47261 | 2446 ft | 4 kts | 166° |
| 2026-04-15 05:01 | -23.43663 | -46.47253 | 2445 ft | 11 kts | 219° |
| 2026-04-15 05:01 | -23.43696 | -46.47357 | 2446 ft | 17 kts | 254° |
| 2026-04-15 05:01 | -23.43735 | -46.47499 | 2448 ft | 20 kts | 253° |
| 2026-04-15 05:02 | -23.43778 | -46.47659 | 2449 ft | 23 kts | 255° |
| 2026-04-15 05:02 | -23.43824 | -46.47833 | 2449 ft | 24 kts | 253° |
| 2026-04-15 05:02 | -23.43869 | -46.47995 | 2448 ft | 20 kts | 253° |
| 2026-04-15 05:02 | -23.43965 | -46.48056 | 2448 ft | 12 kts | 174° |
| 2026-04-15 05:03 | -23.43962 | -46.48016 | 2448 ft | 3 kts | 295° |
| 2026-04-15 05:03 | -23.43962 | -46.48022 | 2448 ft | 1 kts | 272° |
| 2026-04-15 05:03 | -23.43961 | -46.48024 | 2448 ft | 0 kts | 285° |